createdAt,value
2019-03-20T00:00:12.719Z,54.30
2019-03-20T00:00:43.959Z,54.20
2019-03-20T00:01:15.137Z,54.20
2019-03-20T00:01:46.396Z,54.20
2019-03-20T00:02:17.579Z,54.20
2019-03-20T00:02:48.756Z,54.20
2019-03-20T00:03:19.926Z,54.20
2019-03-20T00:03:51.425Z,54.30
2019-03-20T00:04:22.605Z,54.20
2019-03-20T00:04:53.783Z,54.20
2019-03-20T00:05:24.990Z,54.20
2019-03-20T00:05:56.213Z,54.30
2019-03-20T00:06:27.402Z,54.30
2019-03-20T00:06:58.869Z,54.30
2019-03-20T00:07:30.050Z,54.20
2019-03-20T00:08:01.499Z,54.30
2019-03-20T00:08:32.662Z,54.30
2019-03-20T00:09:04.162Z,54.20
2019-03-20T00:09:35.703Z,54.20
2019-03-20T00:10:06.892Z,54.20
2019-03-20T00:10:38.068Z,54.10
2019-03-20T00:11:09.257Z,54.10
2019-03-20T00:11:40.731Z,54.10
2019-03-20T00:12:11.957Z,54.10
2019-03-20T00:12:43.136Z,54.00
2019-03-20T00:13:14.316Z,54.10
2019-03-20T00:13:45.509Z,54.00
2019-03-20T00:14:16.995Z,54.10
2019-03-20T00:14:48.173Z,54.00
2019-03-20T00:15:19.348Z,54.00
2019-03-20T00:15:50.520Z,54.00
2019-03-20T00:16:21.703Z,54.10
2019-03-20T00:16:53.139Z,54.00
2019-03-20T00:17:24.383Z,54.20
2019-03-20T00:17:55.660Z,54.10
2019-03-20T00:18:26.908Z,54.00
2019-03-20T00:18:58.104Z,54.00
2019-03-20T00:19:29.285Z,54.00
2019-03-20T00:20:00.480Z,54.00
2019-03-20T00:20:31.661Z,54.00
2019-03-20T00:21:02.837Z,54.00
2019-03-20T00:21:34.088Z,54.10
2019-03-20T00:22:05.578Z,54.00
2019-03-20T00:22:36.833Z,54.00
2019-03-20T00:23:08.017Z,54.00
2019-03-20T00:23:39.501Z,54.00
2019-03-20T00:24:10.685Z,53.90
2019-03-20T00:24:41.873Z,53.90
2019-03-20T00:25:13.054Z,54.00
2019-03-20T00:25:44.233Z,54.00
2019-03-20T00:26:15.409Z,54.00
2019-03-20T00:26:46.585Z,53.90
2019-03-20T00:27:17.771Z,54.00
2019-03-20T00:27:50.571Z,54.00
2019-03-20T00:28:21.974Z,54.00
2019-03-20T00:28:53.451Z,54.00
2019-03-20T00:29:24.669Z,54.00
2019-03-20T00:29:55.886Z,54.10
2019-03-20T00:30:27.067Z,54.00
2019-03-20T00:30:58.278Z,54.10
2019-03-20T00:31:29.459Z,54.10
2019-03-20T00:32:00.648Z,54.10
2019-03-20T00:32:32.188Z,54.10
2019-03-20T00:33:03.383Z,54.10
2019-03-20T00:33:34.638Z,54.10
2019-03-20T00:34:05.817Z,54.00
2019-03-20T00:34:36.991Z,54.10
2019-03-20T00:35:08.171Z,54.00
2019-03-20T00:35:39.349Z,54.10
2019-03-20T00:36:10.801Z,54.00
2019-03-20T00:36:41.992Z,54.00
2019-03-20T00:37:13.179Z,54.00
2019-03-20T00:37:44.356Z,54.00
2019-03-20T00:38:15.552Z,54.00
2019-03-20T00:38:46.733Z,53.90
2019-03-20T00:39:18.196Z,53.90
2019-03-20T00:39:49.380Z,54.50
2019-03-20T00:40:20.869Z,53.90
2019-03-20T00:40:52.039Z,53.90
2019-03-20T00:41:23.564Z,53.90
2019-03-20T00:41:55.073Z,53.80
2019-03-20T00:42:26.329Z,53.90
2019-03-20T00:42:57.513Z,53.80
2019-03-20T00:43:28.693Z,53.80
2019-03-20T00:43:59.868Z,54.30
2019-03-20T00:44:31.061Z,53.80
2019-03-20T00:45:02.233Z,53.90
2019-03-20T00:45:33.842Z,53.90
2019-03-20T00:46:05.060Z,53.80
2019-03-20T00:46:36.245Z,53.90
2019-03-20T00:47:07.709Z,53.90
2019-03-20T00:47:38.885Z,53.90
2019-03-20T00:48:10.066Z,53.90
2019-03-20T00:48:41.242Z,53.80
2019-03-20T00:49:12.481Z,53.80
2019-03-20T00:49:43.958Z,53.80
2019-03-20T00:50:15.143Z,53.80
2019-03-20T00:50:46.310Z,53.90
2019-03-20T00:51:17.878Z,53.90
2019-03-20T00:51:49.064Z,54.00
2019-03-20T00:52:20.231Z,54.00
2019-03-20T00:52:51.424Z,54.00
2019-03-20T00:53:22.914Z,54.10
2019-03-20T00:53:54.084Z,54.10
2019-03-20T00:54:25.275Z,54.10
2019-03-20T00:54:56.571Z,54.10
2019-03-20T00:55:27.803Z,54.10
2019-03-20T00:55:59.369Z,54.10
2019-03-20T00:56:30.568Z,54.10
2019-03-20T00:57:01.751Z,54.00
2019-03-20T00:57:32.931Z,54.00
2019-03-20T00:58:04.161Z,54.00
2019-03-20T00:58:35.335Z,54.00
2019-03-20T00:59:06.562Z,53.90
2019-03-20T00:59:37.734Z,53.90
2019-03-20T01:00:09.269Z,53.90
2019-03-20T01:00:40.459Z,53.80
2019-03-20T01:01:11.949Z,53.80
2019-03-20T01:01:43.208Z,53.80
2019-03-20T01:02:14.465Z,53.80
2019-03-20T01:02:46.005Z,53.80
2019-03-20T01:03:17.196Z,53.80
2019-03-20T01:03:48.393Z,53.80
2019-03-20T01:04:19.909Z,53.80
2019-03-20T01:04:51.090Z,53.80
2019-03-20T01:05:22.265Z,53.80
2019-03-20T01:05:53.446Z,53.80
2019-03-20T01:06:24.937Z,53.80
2019-03-20T01:06:56.141Z,53.80
2019-03-20T01:07:27.374Z,53.80
2019-03-20T01:07:58.634Z,53.80
2019-03-20T01:08:29.834Z,53.80
2019-03-20T01:09:01.308Z,53.80
2019-03-20T01:09:32.560Z,53.90
2019-03-20T01:10:03.906Z,53.90
2019-03-20T01:10:35.094Z,53.80
2019-03-20T01:11:06.650Z,53.80
2019-03-20T01:11:37.823Z,53.90
2019-03-20T01:12:09.013Z,53.80
2019-03-20T01:12:40.543Z,53.80
2019-03-20T01:13:11.767Z,53.80
2019-03-20T01:13:43.325Z,53.80
2019-03-20T01:14:14.867Z,53.80
2019-03-20T01:14:46.396Z,53.70
2019-03-20T01:15:17.562Z,53.70
2019-03-20T01:15:49.087Z,53.70
2019-03-20T01:16:20.348Z,53.70
2019-03-20T01:16:51.547Z,53.80
2019-03-20T01:17:22.716Z,53.70
2019-03-20T01:17:53.895Z,53.70
2019-03-20T01:18:25.188Z,53.70
2019-03-20T01:18:56.364Z,53.70
2019-03-20T01:19:27.537Z,53.70
2019-03-20T01:19:58.712Z,53.70
2019-03-20T01:20:29.901Z,53.70
2019-03-20T01:21:01.080Z,53.80
2019-03-20T01:21:32.260Z,53.80
2019-03-20T01:22:03.436Z,53.90
2019-03-20T01:22:34.985Z,53.80
2019-03-20T01:23:06.155Z,53.80
2019-03-20T01:23:37.403Z,53.80
2019-03-20T01:24:08.733Z,53.70
2019-03-20T01:24:39.958Z,53.70
2019-03-20T01:25:11.133Z,53.70
2019-03-20T01:25:42.342Z,53.70
2019-03-20T01:26:13.517Z,53.70
2019-03-20T01:26:44.697Z,53.60
2019-03-20T01:27:15.875Z,53.60
2019-03-20T01:27:47.052Z,53.70
2019-03-20T01:28:18.238Z,53.60
2019-03-20T01:28:49.522Z,53.60
2019-03-20T01:29:20.698Z,53.60
2019-03-20T01:29:51.895Z,53.60
2019-03-20T01:30:23.074Z,53.60
2019-03-20T01:30:54.251Z,53.60
2019-03-20T01:31:25.435Z,53.60
2019-03-20T01:31:56.779Z,53.60
2019-03-20T01:32:27.947Z,53.60
2019-03-20T01:32:59.153Z,53.60
2019-03-20T01:33:30.338Z,53.60
2019-03-20T01:34:01.523Z,53.60
2019-03-20T01:34:32.710Z,53.60
2019-03-20T01:35:03.916Z,53.60
2019-03-20T01:35:35.390Z,53.60
2019-03-20T01:36:06.567Z,53.60
2019-03-20T01:36:37.738Z,53.60
2019-03-20T01:37:08.920Z,53.60
2019-03-20T01:37:40.087Z,53.60
2019-03-20T01:38:11.280Z,53.60
2019-03-20T01:38:42.572Z,53.60
2019-03-20T01:39:13.771Z,53.60
2019-03-20T01:39:44.951Z,53.60
2019-03-20T01:40:16.132Z,53.70
2019-03-20T01:40:47.331Z,53.70
2019-03-20T01:41:18.515Z,53.60
2019-03-20T01:41:49.689Z,53.70
2019-03-20T01:42:20.864Z,53.70
2019-03-20T01:42:52.037Z,53.60
2019-03-20T01:43:23.256Z,53.80
2019-03-20T01:43:54.813Z,53.60
2019-03-20T01:44:26.084Z,53.70
2019-03-20T01:44:57.281Z,53.60
2019-03-20T01:45:28.532Z,53.60
2019-03-20T01:45:59.733Z,53.70
2019-03-20T01:46:30.965Z,53.70
2019-03-20T01:47:02.153Z,53.60
2019-03-20T01:47:33.332Z,53.60
2019-03-20T01:48:04.554Z,53.60
2019-03-20T01:48:35.733Z,53.60
2019-03-20T01:49:06.909Z,53.60
2019-03-20T01:49:38.085Z,53.60
2019-03-20T01:50:09.289Z,53.50
2019-03-20T01:50:40.470Z,53.50
2019-03-20T01:51:11.647Z,53.50
2019-03-20T01:51:42.842Z,53.50
2019-03-20T01:52:14.018Z,53.40
2019-03-20T01:52:45.203Z,53.50
2019-03-20T01:53:16.370Z,53.50
2019-03-20T01:53:47.558Z,53.40
2019-03-20T01:54:18.762Z,53.40
2019-03-20T01:54:49.947Z,53.40
2019-03-20T01:55:21.126Z,53.40
2019-03-20T01:55:52.330Z,53.40
2019-03-20T01:56:23.847Z,53.40
2019-03-20T01:56:55.063Z,53.40
2019-03-20T01:57:26.523Z,53.40
2019-03-20T01:57:57.695Z,53.40
2019-03-20T01:58:28.878Z,53.40
2019-03-20T01:59:00.173Z,53.30
2019-03-20T01:59:31.379Z,53.40
2019-03-20T02:00:02.556Z,53.40
2019-03-20T02:00:33.753Z,53.40
2019-03-20T02:01:04.933Z,53.40
2019-03-20T02:01:36.488Z,53.40
2019-03-20T02:02:07.694Z,53.40
2019-03-20T02:02:38.916Z,53.40
2019-03-20T02:03:10.395Z,53.50
2019-03-20T02:03:41.560Z,53.40
2019-03-20T02:04:12.736Z,53.40
2019-03-20T02:04:43.909Z,53.50
2019-03-20T02:05:15.085Z,53.60
2019-03-20T02:05:46.256Z,53.50
2019-03-20T02:06:17.453Z,53.60
2019-03-20T02:06:48.667Z,53.50
2019-03-20T02:07:19.848Z,54.20
2019-03-20T02:07:51.377Z,53.50
2019-03-20T02:08:22.553Z,53.50
2019-03-20T02:08:53.857Z,53.40
2019-03-20T02:09:25.037Z,53.40
2019-03-20T02:09:56.213Z,53.50
2019-03-20T02:10:27.389Z,53.40
2019-03-20T02:10:58.878Z,53.40
2019-03-20T02:11:30.054Z,53.40
2019-03-20T02:12:01.265Z,53.40
2019-03-20T02:12:32.442Z,53.30
2019-03-20T02:13:03.617Z,53.30
2019-03-20T02:13:34.802Z,54.00
2019-03-20T02:14:06.297Z,53.30
2019-03-20T02:14:37.527Z,53.40
2019-03-20T02:15:09.071Z,53.30
2019-03-20T02:15:40.246Z,53.30
2019-03-20T02:16:11.434Z,53.30
2019-03-20T02:16:42.603Z,53.40
2019-03-20T02:17:14.174Z,53.30
2019-03-20T02:17:45.743Z,53.30
2019-03-20T02:18:16.992Z,53.30
2019-03-20T02:18:48.171Z,53.30
2019-03-20T02:19:19.711Z,53.30
2019-03-20T02:19:50.969Z,53.30
2019-03-20T02:20:22.143Z,53.30
2019-03-20T02:20:53.343Z,53.40
2019-03-20T02:21:24.572Z,53.30
2019-03-20T02:21:55.759Z,53.40
2019-03-20T02:22:26.968Z,53.30
2019-03-20T02:22:58.159Z,53.40
2019-03-20T02:23:29.343Z,53.40
2019-03-20T02:24:00.632Z,53.40
2019-03-20T02:24:31.848Z,53.50
2019-03-20T02:25:03.034Z,53.40
2019-03-20T02:25:34.506Z,53.40
2019-03-20T02:26:05.689Z,53.40
2019-03-20T02:26:36.865Z,53.40
2019-03-20T02:27:08.144Z,53.50
2019-03-20T02:27:39.328Z,53.40
2019-03-20T02:28:10.870Z,53.40
2019-03-20T02:28:42.045Z,53.40
2019-03-20T02:29:13.221Z,53.40
2019-03-20T02:29:44.397Z,53.40
2019-03-20T02:30:15.630Z,53.50
2019-03-20T02:30:46.813Z,53.40
2019-03-20T02:31:17.981Z,53.30
2019-03-20T02:31:49.504Z,53.40
2019-03-20T02:32:20.679Z,53.40
2019-03-20T02:32:51.862Z,53.40
2019-03-20T02:33:23.063Z,53.40
2019-03-20T02:33:54.320Z,53.40
2019-03-20T02:34:25.573Z,53.40
2019-03-20T02:34:56.805Z,53.40
2019-03-20T02:35:27.995Z,53.40
2019-03-20T02:35:59.187Z,53.40
2019-03-20T02:36:30.368Z,53.50
2019-03-20T02:37:01.545Z,53.40
2019-03-20T02:37:32.756Z,53.50
2019-03-20T02:38:03.937Z,53.40
2019-03-20T02:38:35.104Z,53.40
2019-03-20T02:39:06.275Z,53.40
2019-03-20T02:39:37.444Z,53.40
2019-03-20T02:40:08.911Z,53.40
2019-03-20T02:40:40.084Z,53.40
2019-03-20T02:41:11.272Z,53.30
2019-03-20T02:41:42.448Z,53.30
2019-03-20T02:42:13.623Z,53.20
2019-03-20T02:42:45.171Z,53.20
2019-03-20T02:43:16.384Z,53.20
2019-03-20T02:43:47.557Z,53.10
2019-03-20T02:44:18.738Z,53.20
2019-03-20T02:44:49.912Z,53.10
2019-03-20T02:45:21.084Z,53.10
2019-03-20T02:45:52.261Z,53.20
2019-03-20T02:46:23.492Z,53.20
2019-03-20T02:46:54.681Z,53.20
2019-03-20T02:47:25.886Z,53.20
2019-03-20T02:47:57.054Z,53.20
2019-03-20T02:48:28.229Z,53.20
2019-03-20T02:48:59.419Z,53.40
2019-03-20T02:49:30.658Z,53.20
2019-03-20T02:50:01.842Z,53.10
2019-03-20T02:50:33.347Z,53.20
2019-03-20T02:51:04.566Z,53.10
2019-03-20T02:51:35.802Z,53.20
2019-03-20T02:52:07.260Z,53.20
2019-03-20T02:52:38.464Z,53.20
2019-03-20T02:53:09.692Z,53.10
2019-03-20T02:53:40.866Z,53.10
2019-03-20T02:54:12.052Z,53.20
2019-03-20T02:54:43.256Z,53.10
2019-03-20T02:55:14.743Z,53.20
2019-03-20T02:55:45.944Z,53.20
2019-03-20T02:56:17.111Z,53.20
2019-03-20T02:56:48.326Z,53.20
2019-03-20T02:57:19.496Z,53.20
2019-03-20T02:57:50.671Z,53.30
2019-03-20T02:58:21.867Z,53.30
2019-03-20T02:58:53.040Z,53.30
2019-03-20T02:59:24.212Z,53.20
2019-03-20T02:59:55.735Z,53.20
2019-03-20T03:00:26.911Z,53.20
2019-03-20T03:00:58.096Z,53.20
2019-03-20T03:01:29.633Z,53.10
2019-03-20T03:02:00.861Z,53.20
2019-03-20T03:02:32.409Z,53.10
2019-03-20T03:03:03.600Z,53.10
2019-03-20T03:03:34.798Z,53.10
2019-03-20T03:04:06.339Z,53.10
2019-03-20T03:04:37.853Z,53.10
2019-03-20T03:05:09.038Z,53.10
2019-03-20T03:05:40.225Z,53.10
2019-03-20T03:06:11.401Z,53.10
2019-03-20T03:06:42.880Z,53.00
2019-03-20T03:07:14.050Z,53.10
2019-03-20T03:07:45.306Z,53.00
2019-03-20T03:08:16.526Z,53.00
2019-03-20T03:08:47.706Z,53.00
2019-03-20T03:09:18.886Z,53.10
2019-03-20T03:09:50.062Z,53.10
2019-03-20T03:10:21.238Z,53.10
2019-03-20T03:10:55.607Z,53.10
2019-03-20T03:11:25.314Z,53.00
2019-03-20T03:11:56.496Z,53.70
2019-03-20T03:12:27.681Z,53.00
2019-03-20T03:12:58.867Z,53.00
2019-03-20T03:13:30.055Z,53.00
2019-03-20T03:14:01.313Z,53.00
2019-03-20T03:14:32.482Z,53.00
2019-03-20T03:15:03.682Z,53.00
2019-03-20T03:15:34.855Z,53.10
2019-03-20T03:16:06.038Z,53.00
2019-03-20T03:16:37.224Z,53.00
2019-03-20T03:17:08.400Z,53.00
2019-03-20T03:17:39.600Z,53.10
2019-03-20T03:18:10.857Z,53.10
2019-03-20T03:18:42.063Z,53.10
2019-03-20T03:19:13.307Z,53.10
2019-03-20T03:19:44.476Z,53.20
2019-03-20T03:20:15.675Z,53.10
2019-03-20T03:20:46.909Z,53.10
2019-03-20T03:21:18.094Z,53.10
2019-03-20T03:21:49.267Z,53.10
2019-03-20T03:22:20.483Z,53.10
2019-03-20T03:22:51.669Z,53.00
2019-03-20T03:23:22.840Z,53.00
2019-03-20T03:23:54.157Z,53.00
2019-03-20T03:24:25.341Z,53.00
2019-03-20T03:24:56.512Z,53.00
2019-03-20T03:25:27.681Z,53.00
2019-03-20T03:25:58.887Z,53.00
2019-03-20T03:26:30.121Z,52.90
2019-03-20T03:27:01.377Z,52.90
2019-03-20T03:27:32.554Z,52.90
2019-03-20T03:28:03.749Z,52.90
2019-03-20T03:28:35.251Z,53.40
2019-03-20T03:29:06.458Z,53.00
2019-03-20T03:29:37.653Z,52.90
2019-03-20T03:30:09.157Z,52.90
2019-03-20T03:30:40.340Z,52.90
2019-03-20T03:31:11.588Z,52.90
2019-03-20T03:31:42.802Z,52.90
2019-03-20T03:32:14.395Z,52.90
2019-03-20T03:32:45.585Z,52.90
2019-03-20T03:33:16.883Z,52.90
2019-03-20T03:33:48.140Z,52.90
2019-03-20T03:34:19.735Z,53.00
2019-03-20T03:34:50.943Z,52.90
2019-03-20T03:35:22.125Z,52.90
2019-03-20T03:35:53.300Z,53.00
2019-03-20T03:36:24.482Z,52.90
2019-03-20T03:36:55.723Z,53.00
2019-03-20T03:37:26.935Z,52.90
2019-03-20T03:37:58.512Z,52.90
2019-03-20T03:38:29.691Z,52.90
2019-03-20T03:39:00.875Z,52.90
2019-03-20T03:39:32.047Z,52.90
2019-03-20T03:40:03.216Z,52.90
2019-03-20T03:40:34.389Z,53.00
2019-03-20T03:41:05.568Z,52.90
2019-03-20T03:41:36.829Z,53.00
2019-03-20T03:42:08.095Z,53.00
2019-03-20T03:42:39.653Z,53.00
2019-03-20T03:43:10.832Z,53.00
2019-03-20T03:43:42.005Z,53.00
2019-03-20T03:44:13.186Z,53.00
2019-03-20T03:44:44.371Z,53.00
2019-03-20T03:45:15.684Z,53.00
2019-03-20T03:45:46.930Z,53.10
2019-03-20T03:46:18.104Z,53.00
2019-03-20T03:46:49.281Z,53.10
2019-03-20T03:47:20.559Z,53.00
2019-03-20T03:47:51.804Z,53.00
2019-03-20T03:48:23.062Z,53.00
2019-03-20T03:48:54.234Z,53.00
2019-03-20T03:49:25.774Z,52.90
2019-03-20T03:49:57.311Z,52.90
2019-03-20T03:50:28.489Z,52.90
2019-03-20T03:50:59.698Z,52.90
2019-03-20T03:51:30.934Z,52.90
2019-03-20T03:52:02.164Z,52.90
2019-03-20T03:52:33.361Z,52.90
2019-03-20T03:53:04.611Z,52.80
2019-03-20T03:53:35.848Z,52.80
2019-03-20T03:54:07.042Z,52.80
2019-03-20T03:54:38.383Z,52.80
2019-03-20T03:55:09.567Z,52.80
2019-03-20T03:55:40.738Z,52.80
2019-03-20T03:56:11.980Z,52.80
2019-03-20T03:56:43.559Z,52.80
2019-03-20T03:57:14.731Z,52.80
2019-03-20T03:57:45.933Z,52.80
2019-03-20T03:58:17.167Z,52.80
2019-03-20T03:58:48.339Z,52.80
2019-03-20T03:59:19.524Z,52.70
2019-03-20T03:59:50.770Z,53.10
2019-03-20T04:00:21.941Z,52.70
2019-03-20T04:00:53.112Z,52.70
2019-03-20T04:01:24.300Z,52.80
2019-03-20T04:01:55.484Z,52.70
2019-03-20T04:02:26.682Z,52.80
2019-03-20T04:02:57.856Z,52.70
2019-03-20T04:03:29.365Z,52.80
2019-03-20T04:04:00.533Z,52.70
2019-03-20T04:04:31.785Z,52.80
2019-03-20T04:05:02.974Z,52.80
2019-03-20T04:05:34.205Z,52.80
2019-03-20T04:06:05.398Z,52.70
2019-03-20T04:06:36.585Z,52.80
2019-03-20T04:07:07.893Z,52.80
2019-03-20T04:07:39.423Z,52.70
2019-03-20T04:08:10.721Z,52.80
2019-03-20T04:08:42.293Z,52.80
2019-03-20T04:09:13.468Z,52.80
2019-03-20T04:09:44.650Z,52.90
2019-03-20T04:10:15.839Z,52.90
2019-03-20T04:10:47.369Z,53.00
2019-03-20T04:11:18.865Z,52.90
2019-03-20T04:11:50.037Z,52.90
2019-03-20T04:12:21.222Z,52.90
2019-03-20T04:12:52.429Z,52.80
2019-03-20T04:13:23.614Z,52.80
2019-03-20T04:13:55.331Z,52.80
2019-03-20T04:14:26.511Z,52.90
2019-03-20T04:14:57.694Z,52.80
2019-03-20T04:15:28.870Z,52.80
2019-03-20T04:16:00.055Z,52.70
2019-03-20T04:16:31.258Z,52.70
2019-03-20T04:17:02.450Z,52.70
2019-03-20T04:17:33.637Z,52.70
2019-03-20T04:18:04.849Z,52.70
2019-03-20T04:18:36.012Z,52.80
2019-03-20T04:19:07.203Z,52.70
2019-03-20T04:19:38.378Z,52.70
2019-03-20T04:20:09.581Z,52.70
2019-03-20T04:20:40.796Z,52.70
2019-03-20T04:21:11.972Z,52.70
2019-03-20T04:21:43.165Z,52.70
2019-03-20T04:22:14.399Z,52.70
2019-03-20T04:22:45.576Z,52.70
2019-03-20T04:23:16.761Z,52.70
2019-03-20T04:23:47.955Z,52.70
2019-03-20T04:24:19.138Z,52.70
2019-03-20T04:24:50.327Z,52.70
2019-03-20T04:25:21.823Z,53.00
2019-03-20T04:25:53.029Z,52.70
2019-03-20T04:26:24.514Z,52.80
2019-03-20T04:26:55.696Z,52.80
2019-03-20T04:27:26.869Z,52.80
2019-03-20T04:27:58.070Z,52.80
2019-03-20T04:28:29.313Z,52.80
2019-03-20T04:29:00.485Z,52.80
2019-03-20T04:29:31.674Z,52.90
2019-03-20T04:30:02.922Z,52.80
2019-03-20T04:30:34.188Z,52.80
2019-03-20T04:31:05.421Z,52.80
2019-03-20T04:31:36.594Z,52.80
2019-03-20T04:32:07.830Z,52.80
2019-03-20T04:32:39.002Z,52.80
2019-03-20T04:33:10.207Z,52.80
2019-03-20T04:33:41.386Z,52.70
2019-03-20T04:34:12.582Z,52.70
2019-03-20T04:34:43.759Z,52.70
2019-03-20T04:35:14.945Z,52.60
2019-03-20T04:35:46.122Z,52.60
2019-03-20T04:36:17.707Z,52.60
2019-03-20T04:36:48.915Z,52.60
2019-03-20T04:37:20.379Z,52.50
2019-03-20T04:37:51.667Z,52.60
2019-03-20T04:38:22.823Z,52.50
2019-03-20T04:38:54.009Z,52.50
2019-03-20T04:39:25.204Z,52.60
2019-03-20T04:39:56.907Z,52.50
2019-03-20T04:40:28.170Z,52.50
2019-03-20T04:40:59.617Z,52.50
2019-03-20T04:41:30.803Z,52.50
2019-03-20T04:42:01.980Z,52.50
2019-03-20T04:42:33.518Z,52.50
2019-03-20T04:43:04.718Z,52.50
2019-03-20T04:43:35.922Z,52.50
2019-03-20T04:44:07.123Z,52.40
2019-03-20T04:44:38.300Z,52.50
2019-03-20T04:45:09.508Z,52.50
2019-03-20T04:45:41.016Z,52.50
2019-03-20T04:46:12.190Z,52.50
2019-03-20T04:46:43.681Z,52.50
2019-03-20T04:47:15.262Z,52.50
2019-03-20T04:47:46.434Z,52.50
2019-03-20T04:48:17.620Z,52.50
2019-03-20T04:48:48.816Z,52.60
2019-03-20T04:49:20.357Z,52.50
2019-03-20T04:49:51.547Z,52.50
2019-03-20T04:50:22.720Z,52.50
2019-03-20T04:50:53.899Z,52.50
2019-03-20T04:51:25.075Z,52.50
2019-03-20T04:51:56.257Z,52.50
2019-03-20T04:52:27.430Z,52.60
2019-03-20T04:52:58.616Z,52.50
2019-03-20T04:53:30.114Z,52.70
2019-03-20T04:54:01.322Z,52.50
2019-03-20T04:54:32.502Z,52.60
2019-03-20T04:55:03.676Z,52.60
2019-03-20T04:55:34.853Z,52.60
2019-03-20T04:56:06.038Z,52.60
2019-03-20T04:56:37.218Z,52.60
2019-03-20T04:57:08.398Z,52.60
2019-03-20T04:57:39.887Z,52.60
2019-03-20T04:58:11.080Z,52.60
2019-03-20T04:58:42.267Z,52.60
2019-03-20T04:59:13.873Z,52.60
2019-03-20T04:59:45.039Z,52.50
2019-03-20T05:00:16.487Z,52.50
2019-03-20T05:00:47.792Z,52.50
2019-03-20T05:01:18.976Z,52.50
2019-03-20T05:01:50.543Z,52.40
2019-03-20T05:02:21.722Z,52.40
2019-03-20T05:02:52.919Z,52.50
2019-03-20T05:03:24.095Z,52.40
2019-03-20T05:03:55.267Z,52.50
2019-03-20T05:04:26.769Z,52.40
2019-03-20T05:04:58.180Z,52.50
2019-03-20T05:05:29.427Z,52.50
2019-03-20T05:06:01.075Z,52.60
2019-03-20T05:06:32.659Z,52.50
2019-03-20T05:07:04.231Z,52.50
2019-03-20T05:07:35.736Z,52.50
2019-03-20T05:08:06.916Z,52.50
2019-03-20T05:08:38.193Z,52.50
2019-03-20T05:09:09.765Z,52.60
2019-03-20T05:09:41.285Z,52.60
2019-03-20T05:10:12.829Z,52.50
2019-03-20T05:10:44.378Z,52.60
2019-03-20T05:11:15.558Z,52.50
2019-03-20T05:11:46.745Z,52.60
2019-03-20T05:12:17.929Z,52.60
2019-03-20T05:12:49.108Z,52.60
2019-03-20T05:13:20.629Z,52.60
2019-03-20T05:13:52.166Z,52.60
2019-03-20T05:14:23.374Z,52.60
2019-03-20T05:14:54.568Z,52.60
2019-03-20T05:15:27.072Z,52.60
2019-03-20T05:15:58.295Z,52.60
2019-03-20T05:16:29.471Z,52.60
2019-03-20T05:17:00.646Z,52.50
2019-03-20T05:17:31.972Z,52.50
2019-03-20T05:18:03.452Z,52.60
2019-03-20T05:18:34.639Z,52.60
2019-03-20T05:19:05.823Z,52.60
2019-03-20T05:19:36.990Z,52.60
2019-03-20T05:20:08.169Z,52.50
2019-03-20T05:20:39.342Z,52.50
2019-03-20T05:21:10.851Z,52.50
2019-03-20T05:21:42.023Z,52.50
2019-03-20T05:22:13.524Z,53.10
2019-03-20T05:22:44.708Z,52.40
2019-03-20T05:23:15.887Z,52.40
2019-03-20T05:23:47.189Z,52.40
2019-03-20T05:24:18.360Z,52.40
2019-03-20T05:24:49.535Z,52.30
2019-03-20T05:25:21.122Z,52.40
2019-03-20T05:25:52.296Z,52.40
2019-03-20T05:26:23.477Z,52.40
2019-03-20T05:26:54.997Z,52.40
2019-03-20T05:27:26.169Z,52.50
2019-03-20T05:27:57.359Z,52.50
2019-03-20T05:28:28.552Z,52.40
2019-03-20T05:28:59.773Z,53.10
2019-03-20T05:29:30.951Z,52.40
2019-03-20T05:30:02.184Z,52.40
2019-03-20T05:30:33.380Z,53.10
2019-03-20T05:31:04.884Z,52.40
2019-03-20T05:31:36.448Z,52.40
2019-03-20T05:32:07.965Z,52.40
2019-03-20T05:32:39.149Z,52.50
2019-03-20T05:33:10.428Z,52.40
2019-03-20T05:33:41.601Z,52.40
2019-03-20T05:34:12.777Z,52.40
2019-03-20T05:34:44.325Z,52.40
2019-03-20T05:35:15.506Z,52.40
2019-03-20T05:35:46.725Z,52.40
2019-03-20T05:36:17.905Z,53.00
2019-03-20T05:36:49.087Z,52.40
2019-03-20T05:37:20.270Z,53.10
2019-03-20T05:37:51.727Z,52.40
2019-03-20T05:38:22.901Z,52.50
2019-03-20T05:38:54.083Z,52.40
2019-03-20T05:39:25.268Z,52.40
2019-03-20T05:39:56.527Z,52.50
2019-03-20T05:40:27.710Z,52.50
2019-03-20T05:40:58.910Z,52.60
2019-03-20T05:41:30.099Z,52.50
2019-03-20T05:42:01.275Z,53.20
2019-03-20T05:42:32.916Z,52.50
2019-03-20T05:43:04.092Z,52.50
2019-03-20T05:43:35.280Z,52.50
2019-03-20T05:44:06.491Z,52.50
2019-03-20T05:44:37.667Z,52.50
2019-03-20T05:45:09.335Z,52.50
2019-03-20T05:45:40.635Z,52.40
2019-03-20T05:46:11.820Z,52.50
2019-03-20T05:46:43.312Z,52.40
2019-03-20T05:47:14.492Z,51.90
2019-03-20T05:47:45.677Z,52.40
2019-03-20T05:48:17.213Z,52.70
2019-03-20T05:48:48.433Z,52.40
2019-03-20T05:49:19.610Z,52.40
2019-03-20T05:49:50.797Z,52.40
2019-03-20T05:50:22.009Z,53.00
2019-03-20T05:50:53.183Z,52.40
2019-03-20T05:51:24.789Z,52.40
2019-03-20T05:51:55.975Z,52.40
2019-03-20T05:52:27.156Z,52.40
2019-03-20T05:52:58.686Z,52.40
2019-03-20T05:53:29.905Z,52.40
2019-03-20T05:54:01.121Z,52.40
2019-03-20T05:54:32.306Z,52.40
2019-03-20T05:55:03.489Z,52.70
2019-03-20T05:55:34.670Z,52.40
2019-03-20T05:56:06.051Z,52.50
2019-03-20T05:56:37.523Z,52.40
2019-03-20T05:57:08.754Z,52.40
2019-03-20T05:57:39.995Z,52.40
2019-03-20T05:58:11.230Z,52.40
2019-03-20T05:58:42.792Z,52.30
2019-03-20T05:59:13.963Z,52.40
2019-03-20T05:59:45.228Z,52.40
2019-03-20T06:00:16.405Z,52.40
2019-03-20T06:00:47.610Z,52.40
2019-03-20T06:01:18.787Z,52.40
2019-03-20T06:01:49.972Z,52.30
2019-03-20T06:02:21.143Z,52.30
2019-03-20T06:02:52.318Z,52.30
2019-03-20T06:03:23.523Z,52.30
2019-03-20T06:03:54.698Z,52.30
2019-03-20T06:04:25.924Z,52.30
2019-03-20T06:04:57.123Z,52.30
2019-03-20T06:05:28.308Z,52.20
2019-03-20T06:05:59.487Z,52.30
2019-03-20T06:06:31.032Z,52.20
2019-03-20T06:07:02.208Z,52.20
2019-03-20T06:07:33.388Z,52.30
2019-03-20T06:08:04.602Z,52.30
2019-03-20T06:08:35.773Z,52.30
2019-03-20T06:09:06.952Z,52.20
2019-03-20T06:09:38.130Z,52.20
2019-03-20T06:10:09.304Z,52.20
2019-03-20T06:10:40.501Z,52.20
2019-03-20T06:11:11.757Z,52.20
2019-03-20T06:11:43.252Z,52.30
2019-03-20T06:12:14.432Z,52.20
2019-03-20T06:12:45.626Z,52.20
2019-03-20T06:13:16.816Z,52.20
2019-03-20T06:13:47.997Z,52.20
2019-03-20T06:14:19.196Z,52.20
2019-03-20T06:14:50.376Z,52.20
2019-03-20T06:15:21.566Z,52.20
2019-03-20T06:15:52.749Z,52.20
2019-03-20T06:16:23.931Z,52.30
2019-03-20T06:16:55.101Z,52.20
2019-03-20T06:17:26.339Z,52.30
2019-03-20T06:17:57.585Z,52.20
2019-03-20T06:18:28.794Z,52.20
2019-03-20T06:18:59.975Z,52.30
2019-03-20T06:19:31.158Z,52.20
2019-03-20T06:20:02.351Z,52.20
2019-03-20T06:20:33.923Z,52.10
2019-03-20T06:21:05.303Z,52.20
2019-03-20T06:21:36.502Z,52.20
2019-03-20T06:22:07.687Z,52.80
2019-03-20T06:22:38.865Z,52.20
2019-03-20T06:23:11.298Z,52.30
2019-03-20T06:23:42.557Z,52.20
2019-03-20T06:24:13.739Z,52.30
2019-03-20T06:24:44.921Z,52.30
2019-03-20T06:25:16.187Z,53.00
2019-03-20T06:25:47.592Z,52.30
2019-03-20T06:26:18.789Z,52.30
2019-03-20T06:26:50.025Z,52.30
2019-03-20T06:27:21.206Z,52.30
2019-03-20T06:27:53.117Z,52.30
2019-03-20T06:28:24.544Z,52.30
2019-03-20T06:28:55.725Z,52.20
2019-03-20T06:29:26.910Z,52.20
2019-03-20T06:29:58.085Z,52.20
2019-03-20T06:30:29.340Z,52.20
2019-03-20T06:31:00.548Z,52.30
2019-03-20T06:31:31.724Z,52.30
2019-03-20T06:32:02.901Z,52.20
2019-03-20T06:32:34.393Z,52.30
2019-03-20T06:33:05.933Z,52.20
2019-03-20T06:33:37.469Z,52.20
2019-03-20T06:34:08.645Z,52.30
2019-03-20T06:34:40.153Z,52.20
2019-03-20T06:35:11.330Z,52.20
2019-03-20T06:35:42.506Z,52.20
2019-03-20T06:36:13.672Z,52.20
2019-03-20T06:36:44.867Z,52.30
2019-03-20T06:37:16.050Z,52.30
2019-03-20T06:37:47.230Z,52.30
2019-03-20T06:38:18.410Z,52.20
2019-03-20T06:38:49.589Z,52.20
2019-03-20T06:39:20.768Z,52.20
2019-03-20T06:39:53.413Z,52.20
2019-03-20T06:40:24.821Z,52.20
2019-03-20T06:40:56.079Z,52.20
2019-03-20T06:41:27.250Z,52.20
2019-03-20T06:41:58.445Z,52.20
2019-03-20T06:42:29.633Z,52.20